sensor_id;sensor_type;location;lat;lon;timestamp;temperature;humidity
423;DHT22;198;48.752;9.180;2023-03-22T00:02:21;11.90;99.90
423;DHT22;198;48.752;9.180;2023-03-22T00:04:47;11.90;99.90
423;DHT22;198;48.752;9.180;2023-03-22T00:07:13;11.90;99.90
423;DHT22;198;48.752;9.180;2023-03-22T00:09:38;11.80;99.90
423;DHT22;198;48.752;9.180;2023-03-22T00:12:04;11.80;99.90
423;DHT22;198;48.752;9.180;2023-03-22T00:14:30;11.90;99.90
423;DHT22;198;48.752;9.180;2023-03-22T00:16:55;11.90;99.90
423;DHT22;198;48.752;9.180;2023-03-22T00:19:21;11.90;99.90
423;DHT22;198;48.752;9.180;2023-03-22T00:21:47;11.90;99.90
423;DHT22;198;48.752;9.180;2023-03-22T00:24:12;11.90;99.90
423;DHT22;198;48.752;9.180;2023-03-22T00:26:38;12.00;99.90
423;DHT22;198;48.752;9.180;2023-03-22T00:29:04;12.00;99.90
423;DHT22;198;48.752;9.180;2023-03-22T00:31:29;12.00;99.90
423;DHT22;198;48.752;9.180;2023-03-22T00:33:55;12.00;99.90
423;DHT22;198;48.752;9.180;2023-03-22T00:36:20;11.90;99.90
423;DHT22;198;48.752;9.180;2023-03-22T00:38:46;12.00;99.90
423;DHT22;198;48.752;9.180;2023-03-22T00:41:15;11.90;99.90
423;DHT22;198;48.752;9.180;2023-03-22T00:43:41;11.90;99.90
423;DHT22;198;48.752;9.180;2023-03-22T00:46:09;11.90;99.90
423;DHT22;198;48.752;9.180;2023-03-22T00:48:34;11.90;99.90
423;DHT22;198;48.752;9.180;2023-03-22T00:51:00;11.90;99.90
423;DHT22;198;48.752;9.180;2023-03-22T00:53:26;11.90;99.90
423;DHT22;198;48.752;9.180;2023-03-22T00:55:54;11.90;99.90
423;DHT22;198;48.752;9.180;2023-03-22T00:58:19;11.90;99.90
423;DHT22;198;48.752;9.180;2023-03-22T01:00:45;11.90;99.90
423;DHT22;198;48.752;9.180;2023-03-22T01:03:10;11.90;99.90
423;DHT22;198;48.752;9.180;2023-03-22T01:05:38;11.80;99.90
423;DHT22;198;48.752;9.180;2023-03-22T01:08:04;11.80;99.90
423;DHT22;198;48.752;9.180;2023-03-22T01:10:34;11.70;99.90
423;DHT22;198;48.752;9.180;2023-03-22T01:12:59;11.60;99.90
423;DHT22;198;48.752;9.180;2023-03-22T01:15:25;11.60;99.90
423;DHT22;198;48.752;9.180;2023-03-22T01:17:51;11.60;99.90
423;DHT22;198;48.752;9.180;2023-03-22T01:20:16;11.50;99.90
423;DHT22;198;48.752;9.180;2023-03-22T01:22:42;11.50;99.90
423;DHT22;198;48.752;9.180;2023-03-22T01:25:08;11.40;99.90
423;DHT22;198;48.752;9.180;2023-03-22T01:27:34;11.30;99.90
423;DHT22;198;48.752;9.180;2023-03-22T01:29:59;11.20;99.90
423;DHT22;198;48.752;9.180;2023-03-22T01:32:25;11.20;99.90
423;DHT22;198;48.752;9.180;2023-03-22T01:34:51;11.10;99.90
423;DHT22;198;48.752;9.180;2023-03-22T01:37:17;11.10;99.90
423;DHT22;198;48.752;9.180;2023-03-22T01:39:42;11.10;99.90
423;DHT22;198;48.752;9.180;2023-03-22T01:42:12;11.00;99.90
423;DHT22;198;48.752;9.180;2023-03-22T01:44:41;11.00;99.90
423;DHT22;198;48.752;9.180;2023-03-22T01:47:09;11.00;99.90
423;DHT22;198;48.752;9.180;2023-03-22T01:49:36;11.00;99.90
423;DHT22;198;48.752;9.180;2023-03-22T01:52:10;11.00;99.90
423;DHT22;198;48.752;9.180;2023-03-22T01:54:45;10.90;99.90
423;DHT22;198;48.752;9.180;2023-03-22T01:57:11;10.90;99.90
423;DHT22;198;48.752;9.180;2023-03-22T01:59:38;10.80;99.90
423;DHT22;198;48.752;9.180;2023-03-22T02:02:05;10.80;99.90
423;DHT22;198;48.752;9.180;2023-03-22T02:04:35;10.70;99.90
423;DHT22;198;48.752;9.180;2023-03-22T02:07:06;10.70;99.90
423;DHT22;198;48.752;9.180;2023-03-22T02:09:36;10.60;99.90
423;DHT22;198;48.752;9.180;2023-03-22T02:12:17;10.60;99.90
423;DHT22;198;48.752;9.180;2023-03-22T02:15:00;10.60;99.90
423;DHT22;198;48.752;9.180;2023-03-22T02:17:46;10.50;99.90
423;DHT22;198;48.752;9.180;2023-03-22T02:37:49;10.40;99.90
423;DHT22;198;48.752;9.180;2023-03-22T02:42:56;10.30;99.90
423;DHT22;198;48.752;9.180;2023-03-22T02:48:16;10.30;99.90
423;DHT22;198;48.752;9.180;2023-03-22T02:53:18;10.20;99.90
423;DHT22;198;48.752;9.180;2023-03-22T02:58:34;10.10;99.90
423;DHT22;198;48.752;9.180;2023-03-22T03:01:05;10.10;99.90
423;DHT22;198;48.752;9.180;2023-03-22T03:03:32;10.10;99.90
423;DHT22;198;48.752;9.180;2023-03-22T03:06:05;10.10;99.90
423;DHT22;198;48.752;9.180;2023-03-22T03:08:34;10.00;99.90
423;DHT22;198;48.752;9.180;2023-03-22T03:11:01;10.00;99.90
423;DHT22;198;48.752;9.180;2023-03-22T03:13:26;10.00;99.90
423;DHT22;198;48.752;9.180;2023-03-22T03:15:55;10.00;99.90
423;DHT22;198;48.752;9.180;2023-03-22T03:18:46;10.00;99.90
423;DHT22;198;48.752;9.180;2023-03-22T03:24:00;10.00;99.90
423;DHT22;198;48.752;9.180;2023-03-22T03:34:57;10.00;99.90
423;DHT22;198;48.752;9.180;2023-03-22T03:37:28;9.90;99.90
423;DHT22;198;48.752;9.180;2023-03-22T03:40:09;9.90;99.90
423;DHT22;198;48.752;9.180;2023-03-22T03:42:38;9.80;99.90
423;DHT22;198;48.752;9.180;2023-03-22T03:45:05;9.80;99.90
423;DHT22;198;48.752;9.180;2023-03-22T03:47:33;9.80;99.90
423;DHT22;198;48.752;9.180;2023-03-22T03:50:01;9.80;99.90
423;DHT22;198;48.752;9.180;2023-03-22T03:52:26;9.80;99.90
423;DHT22;198;48.752;9.180;2023-03-22T03:54:53;9.80;99.90
423;DHT22;198;48.752;9.180;2023-03-22T03:57:19;9.70;99.90
423;DHT22;198;48.752;9.180;2023-03-22T03:59:44;9.70;99.90
423;DHT22;198;48.752;9.180;2023-03-22T04:02:10;9.70;99.90
423;DHT22;198;48.752;9.180;2023-03-22T04:04:36;9.60;99.90
423;DHT22;198;48.752;9.180;2023-03-22T04:07:04;9.60;99.90
423;DHT22;198;48.752;9.180;2023-03-22T04:09:33;9.60;99.90
423;DHT22;198;48.752;9.180;2023-03-22T04:11:59;9.60;99.90
423;DHT22;198;48.752;9.180;2023-03-22T04:14:25;9.60;99.90
423;DHT22;198;48.752;9.180;2023-03-22T04:16:51;9.60;99.90
423;DHT22;198;48.752;9.180;2023-03-22T04:19:17;9.60;99.90
423;DHT22;198;48.752;9.180;2023-03-22T04:21:43;9.50;99.90
423;DHT22;198;48.752;9.180;2023-03-22T04:24:10;9.50;99.90
423;DHT22;198;48.752;9.180;2023-03-22T04:26:36;9.50;99.90
423;DHT22;198;48.752;9.180;2023-03-22T04:29:01;9.50;99.90
423;DHT22;198;48.752;9.180;2023-03-22T04:31:28;9.40;99.90
423;DHT22;198;48.752;9.180;2023-03-22T04:33:54;9.40;99.90
423;DHT22;198;48.752;9.180;2023-03-22T04:36:22;9.40;99.90
423;DHT22;198;48.752;9.180;2023-03-22T04:38:48;9.40;99.90
423;DHT22;198;48.752;9.180;2023-03-22T04:41:14;9.40;99.90
423;DHT22;198;48.752;9.180;2023-03-22T04:43:40;9.40;99.90
423;DHT22;198;48.752;9.180;2023-03-22T04:46:06;9.50;99.90
423;DHT22;198;48.752;9.180;2023-03-22T04:48:38;9.40;99.90
423;DHT22;198;48.752;9.180;2023-03-22T04:51:09;9.40;99.90
423;DHT22;198;48.752;9.180;2023-03-22T04:53:36;9.40;99.90
423;DHT22;198;48.752;9.180;2023-03-22T04:56:05;9.40;99.90
423;DHT22;198;48.752;9.180;2023-03-22T04:58:31;9.40;99.90
423;DHT22;198;48.752;9.180;2023-03-22T05:00:57;9.40;99.90
423;DHT22;198;48.752;9.180;2023-03-22T05:03:23;9.40;99.90
423;DHT22;198;48.752;9.180;2023-03-22T05:05:52;9.40;99.90
423;DHT22;198;48.752;9.180;2023-03-22T05:08:20;9.40;99.90
423;DHT22;198;48.752;9.180;2023-03-22T05:10:45;9.40;99.90
423;DHT22;198;48.752;9.180;2023-03-22T05:13:11;9.40;99.90
423;DHT22;198;48.752;9.180;2023-03-22T05:15:39;9.40;99.90
423;DHT22;198;48.752;9.180;2023-03-22T05:18:06;9.40;99.90
423;DHT22;198;48.752;9.180;2023-03-22T05:20:31;9.40;99.90
423;DHT22;198;48.752;9.180;2023-03-22T05:22:57;9.40;99.90
423;DHT22;198;48.752;9.180;2023-03-22T05:25:23;9.40;99.90
423;DHT22;198;48.752;9.180;2023-03-22T05:27:48;9.40;99.90
423;DHT22;198;48.752;9.180;2023-03-22T05:30:14;9.40;99.90
423;DHT22;198;48.752;9.180;2023-03-22T05:32:40;9.40;99.90
423;DHT22;198;48.752;9.180;2023-03-22T05:35:08;9.40;99.90
423;DHT22;198;48.752;9.180;2023-03-22T05:37:34;9.40;99.90
423;DHT22;198;48.752;9.180;2023-03-22T05:40:00;9.40;99.90
423;DHT22;198;48.752;9.180;2023-03-22T05:42:26;9.40;99.90
423;DHT22;198;48.752;9.180;2023-03-22T05:44:51;9.50;99.90
423;DHT22;198;48.752;9.180;2023-03-22T05:47:17;9.50;99.90
423;DHT22;198;48.752;9.180;2023-03-22T05:49:42;9.50;99.90
423;DHT22;198;48.752;9.180;2023-03-22T05:52:08;9.60;99.90
423;DHT22;198;48.752;9.180;2023-03-22T05:54:34;9.60;99.90
423;DHT22;198;48.752;9.180;2023-03-22T05:56:59;9.60;99.90
423;DHT22;198;48.752;9.180;2023-03-22T05:59:25;9.60;99.90
423;DHT22;198;48.752;9.180;2023-03-22T06:01:50;9.60;99.90
423;DHT22;198;48.752;9.180;2023-03-22T06:04:16;9.70;99.90
423;DHT22;198;48.752;9.180;2023-03-22T06:06:42;9.70;99.90
423;DHT22;198;48.752;9.180;2023-03-22T06:09:08;9.70;99.90
423;DHT22;198;48.752;9.180;2023-03-22T06:11:33;9.70;99.90
423;DHT22;198;48.752;9.180;2023-03-22T06:14:00;9.70;99.90
423;DHT22;198;48.752;9.180;2023-03-22T06:16:26;9.70;99.90
423;DHT22;198;48.752;9.180;2023-03-22T06:18:51;9.70;99.90
423;DHT22;198;48.752;9.180;2023-03-22T06:21:17;9.70;99.90
423;DHT22;198;48.752;9.180;2023-03-22T06:23:42;9.80;99.90
423;DHT22;198;48.752;9.180;2023-03-22T06:26:08;9.80;99.90
423;DHT22;198;48.752;9.180;2023-03-22T06:28:36;9.80;99.90
423;DHT22;198;48.752;9.180;2023-03-22T06:31:06;9.80;99.90
423;DHT22;198;48.752;9.180;2023-03-22T06:33:32;9.90;99.90
423;DHT22;198;48.752;9.180;2023-03-22T06:35:57;9.90;99.90
423;DHT22;198;48.752;9.180;2023-03-22T06:38:25;9.90;99.90
423;DHT22;198;48.752;9.180;2023-03-22T06:40:50;10.00;99.90
423;DHT22;198;48.752;9.180;2023-03-22T06:43:15;10.10;99.90
423;DHT22;198;48.752;9.180;2023-03-22T06:45:41;10.10;99.90
423;DHT22;198;48.752;9.180;2023-03-22T06:48:07;10.10;99.90
423;DHT22;198;48.752;9.180;2023-03-22T06:50:32;10.20;99.90
423;DHT22;198;48.752;9.180;2023-03-22T06:53:02;10.20;99.90
423;DHT22;198;48.752;9.180;2023-03-22T06:55:27;10.30;99.90
423;DHT22;198;48.752;9.180;2023-03-22T06:57:57;10.30;99.90
423;DHT22;198;48.752;9.180;2023-03-22T07:00:23;10.40;99.90
423;DHT22;198;48.752;9.180;2023-03-22T07:02:48;10.50;99.90
423;DHT22;198;48.752;9.180;2023-03-22T07:05:14;10.60;99.90
423;DHT22;198;48.752;9.180;2023-03-22T07:07:39;10.70;99.90
423;DHT22;198;48.752;9.180;2023-03-22T07:10:05;10.70;99.90
423;DHT22;198;48.752;9.180;2023-03-22T07:12:32;10.90;99.90
423;DHT22;198;48.752;9.180;2023-03-22T07:14:57;10.90;99.90
423;DHT22;198;48.752;9.180;2023-03-22T07:17:23;11.00;99.90
423;DHT22;198;48.752;9.180;2023-03-22T07:19:49;11.10;99.90
423;DHT22;198;48.752;9.180;2023-03-22T07:22:14;11.20;99.90
423;DHT22;198;48.752;9.180;2023-03-22T07:24:40;11.30;99.90
423;DHT22;198;48.752;9.180;2023-03-22T07:27:05;11.40;99.90
423;DHT22;198;48.752;9.180;2023-03-22T07:29:32;11.50;99.90
423;DHT22;198;48.752;9.180;2023-03-22T07:31:57;11.50;99.50
423;DHT22;198;48.752;9.180;2023-03-22T07:34:23;11.60;99.10
423;DHT22;198;48.752;9.180;2023-03-22T07:36:48;11.70;98.40
423;DHT22;198;48.752;9.180;2023-03-22T07:39:14;11.70;97.90
423;DHT22;198;48.752;9.180;2023-03-22T07:41:40;11.80;95.90
423;DHT22;198;48.752;9.180;2023-03-22T07:44:05;11.80;94.60
423;DHT22;198;48.752;9.180;2023-03-22T07:46:31;11.90;94.50
423;DHT22;198;48.752;9.180;2023-03-22T07:48:57;12.00;93.70
423;DHT22;198;48.752;9.180;2023-03-22T07:51:22;12.00;93.40
423;DHT22;198;48.752;9.180;2023-03-22T07:53:48;12.10;93.30
423;DHT22;198;48.752;9.180;2023-03-22T07:56:13;12.10;92.40
423;DHT22;198;48.752;9.180;2023-03-22T07:58:39;12.20;92.00
423;DHT22;198;48.752;9.180;2023-03-22T08:01:06;12.30;91.70
423;DHT22;198;48.752;9.180;2023-03-22T08:03:34;12.30;91.80
423;DHT22;198;48.752;9.180;2023-03-22T08:06:01;12.40;91.40
423;DHT22;198;48.752;9.180;2023-03-22T08:08:31;12.50;90.90
423;DHT22;198;48.752;9.180;2023-03-22T08:10:56;12.70;90.40
423;DHT22;198;48.752;9.180;2023-03-22T08:13:22;12.80;90.50
423;DHT22;198;48.752;9.180;2023-03-22T08:15:48;12.90;89.60
423;DHT22;198;48.752;9.180;2023-03-22T08:18:13;13.00;89.00
423;DHT22;198;48.752;9.180;2023-03-22T08:20:39;13.10;87.80
423;DHT22;198;48.752;9.180;2023-03-22T08:23:05;13.20;88.20
423;DHT22;198;48.752;9.180;2023-03-22T08:25:32;13.40;88.00
423;DHT22;198;48.752;9.180;2023-03-22T08:27:58;13.50;87.90
423;DHT22;198;48.752;9.180;2023-03-22T08:30:23;13.70;86.80
423;DHT22;198;48.752;9.180;2023-03-22T08:32:49;14.00;85.50
423;DHT22;198;48.752;9.180;2023-03-22T08:35:15;14.00;84.50
423;DHT22;198;48.752;9.180;2023-03-22T08:37:40;14.20;85.20
423;DHT22;198;48.752;9.180;2023-03-22T08:40:07;14.30;83.40
423;DHT22;198;48.752;9.180;2023-03-22T08:42:34;14.50;84.30
423;DHT22;198;48.752;9.180;2023-03-22T08:45:00;14.70;82.60
423;DHT22;198;48.752;9.180;2023-03-22T08:47:25;15.00;81.30
423;DHT22;198;48.752;9.180;2023-03-22T08:49:51;15.20;79.70
423;DHT22;198;48.752;9.180;2023-03-22T08:52:16;15.20;79.00
423;DHT22;198;48.752;9.180;2023-03-22T08:54:41;15.30;78.20
423;DHT22;198;48.752;9.180;2023-03-22T08:57:07;15.60;78.10
423;DHT22;198;48.752;9.180;2023-03-22T08:59:34;15.90;77.00
423;DHT22;198;48.752;9.180;2023-03-22T09:01:59;16.20;75.10
423;DHT22;198;48.752;9.180;2023-03-22T09:04:25;16.40;74.60
423;DHT22;198;48.752;9.180;2023-03-22T09:06:51;16.40;73.80
423;DHT22;198;48.752;9.180;2023-03-22T09:09:17;16.50;72.70
423;DHT22;198;48.752;9.180;2023-03-22T09:11:42;16.60;72.40
423;DHT22;198;48.752;9.180;2023-03-22T09:14:09;16.90;70.60
423;DHT22;198;48.752;9.180;2023-03-22T09:16:35;16.90;70.50
423;DHT22;198;48.752;9.180;2023-03-22T09:19:00;17.40;71.90
423;DHT22;198;48.752;9.180;2023-03-22T09:21:27;17.70;67.50
423;DHT22;198;48.752;9.180;2023-03-22T09:23:54;18.40;66.00
423;DHT22;198;48.752;9.180;2023-03-22T09:26:20;18.90;64.20
423;DHT22;198;48.752;9.180;2023-03-22T09:28:47;19.60;60.10
423;DHT22;198;48.752;9.180;2023-03-22T09:31:12;19.70;58.60
423;DHT22;198;48.752;9.180;2023-03-22T09:33:38;20.70;59.00
423;DHT22;198;48.752;9.180;2023-03-22T09:36:06;21.90;55.80
423;DHT22;198;48.752;9.180;2023-03-22T09:38:32;22.70;52.60
423;DHT22;198;48.752;9.180;2023-03-22T09:41:02;24.20;50.90
423;DHT22;198;48.752;9.180;2023-03-22T09:43:35;25.20;46.20
423;DHT22;198;48.752;9.180;2023-03-22T09:46:04;26.30;44.80
423;DHT22;198;48.752;9.180;2023-03-22T09:48:33;28.50;41.80
423;DHT22;198;48.752;9.180;2023-03-22T09:51:03;29.40;37.90
423;DHT22;198;48.752;9.180;2023-03-22T09:53:29;30.00;36.60
423;DHT22;198;48.752;9.180;2023-03-22T09:58:45;31.60;32.40
423;DHT22;198;48.752;9.180;2023-03-22T10:01:27;31.90;31.00
423;DHT22;198;48.752;9.180;2023-03-22T10:07:06;32.60;30.00
423;DHT22;198;48.752;9.180;2023-03-22T10:09:58;32.80;30.00
423;DHT22;198;48.752;9.180;2023-03-22T10:15:25;31.10;29.50
423;DHT22;198;48.752;9.180;2023-03-22T10:17:54;30.00;30.80
423;DHT22;198;48.752;9.180;2023-03-22T10:20:46;28.60;31.80
423;DHT22;198;48.752;9.180;2023-03-22T10:23:19;28.10;33.60
423;DHT22;198;48.752;9.180;2023-03-22T10:25:46;28.10;33.70
423;DHT22;198;48.752;9.180;2023-03-22T10:28:19;27.30;33.40
423;DHT22;198;48.752;9.180;2023-03-22T10:30:49;27.30;34.70
423;DHT22;198;48.752;9.180;2023-03-22T10:33:29;28.80;33.90
423;DHT22;198;48.752;9.180;2023-03-22T10:35:55;29.70;32.40
423;DHT22;198;48.752;9.180;2023-03-22T10:38:24;30.70;32.20
423;DHT22;198;48.752;9.180;2023-03-22T10:40:53;31.80;30.50
423;DHT22;198;48.752;9.180;2023-03-22T10:43:35;33.10;29.50
423;DHT22;198;48.752;9.180;2023-03-22T10:46:05;34.90;28.60
423;DHT22;198;48.752;9.180;2023-03-22T10:48:37;36.10;27.00
423;DHT22;198;48.752;9.180;2023-03-22T10:51:05;36.20;27.30
423;DHT22;198;48.752;9.180;2023-03-22T10:53:43;37.00;26.20
423;DHT22;198;48.752;9.180;2023-03-22T10:56:16;38.20;25.80
423;DHT22;198;48.752;9.180;2023-03-22T10:58:43;37.30;25.00
423;DHT22;198;48.752;9.180;2023-03-22T11:01:27;36.50;26.10
423;DHT22;198;48.752;9.180;2023-03-22T11:03:59;37.10;25.70
423;DHT22;198;48.752;9.180;2023-03-22T11:06:31;36.30;25.40
423;DHT22;198;48.752;9.180;2023-03-22T11:11:49;36.00;25.90
423;DHT22;198;48.752;9.180;2023-03-22T11:14:22;35.00;25.50
423;DHT22;198;48.752;9.180;2023-03-22T11:16:57;33.20;26.80
423;DHT22;198;48.752;9.180;2023-03-22T11:22:02;30.70;27.90
423;DHT22;198;48.752;9.180;2023-03-22T11:24:30;29.60;29.00
423;DHT22;198;48.752;9.180;2023-03-22T11:29:52;28.60;30.90
423;DHT22;198;48.752;9.180;2023-03-22T11:32:29;28.20;30.10
423;DHT22;198;48.752;9.180;2023-03-22T11:35:10;28.20;31.10
423;DHT22;198;48.752;9.180;2023-03-22T11:37:48;29.10;30.80
423;DHT22;198;48.752;9.180;2023-03-22T11:40:23;30.80;29.30
423;DHT22;198;48.752;9.180;2023-03-22T11:43:14;30.90;28.80
423;DHT22;198;48.752;9.180;2023-03-22T11:45:42;32.40;28.40
423;DHT22;198;48.752;9.180;2023-03-22T11:48:16;33.80;27.70
423;DHT22;198;48.752;9.180;2023-03-22T11:50:43;34.50;26.50
423;DHT22;198;48.752;9.180;2023-03-22T11:53:14;33.40;25.90
423;DHT22;198;48.752;9.180;2023-03-22T11:55:41;32.60;26.60
423;DHT22;198;48.752;9.180;2023-03-22T11:58:07;32.60;25.80
423;DHT22;198;48.752;9.180;2023-03-22T12:00:37;31.90;26.30
423;DHT22;198;48.752;9.180;2023-03-22T12:03:13;30.80;25.70
423;DHT22;198;48.752;9.180;2023-03-22T12:05:43;30.10;26.50
423;DHT22;198;48.752;9.180;2023-03-22T12:08:19;28.80;27.20
423;DHT22;198;48.752;9.180;2023-03-22T12:10:56;28.90;27.70
423;DHT22;198;48.752;9.180;2023-03-22T12:13:32;29.50;27.00
423;DHT22;198;48.752;9.180;2023-03-22T12:16:04;29.40;27.10
423;DHT22;198;48.752;9.180;2023-03-22T12:21:04;30.90;25.90
423;DHT22;198;48.752;9.180;2023-03-22T12:23:31;31.50;25.50
423;DHT22;198;48.752;9.180;2023-03-22T12:31:10;29.80;26.00
423;DHT22;198;48.752;9.180;2023-03-22T12:33:45;29.70;26.10
423;DHT22;198;48.752;9.180;2023-03-22T12:36:17;29.80;26.20
423;DHT22;198;48.752;9.180;2023-03-22T12:39:04;30.10;26.50
423;DHT22;198;48.752;9.180;2023-03-22T12:41:36;30.40;26.60
423;DHT22;198;48.752;9.180;2023-03-22T12:44:12;31.80;26.00
423;DHT22;198;48.752;9.180;2023-03-22T12:46:56;32.70;24.30
423;DHT22;198;48.752;9.180;2023-03-22T12:54:45;32.30;24.70
423;DHT22;198;48.752;9.180;2023-03-22T12:57:13;31.50;24.70
423;DHT22;198;48.752;9.180;2023-03-22T12:59:49;30.00;25.90
423;DHT22;198;48.752;9.180;2023-03-22T13:02:17;29.50;26.10
423;DHT22;198;48.752;9.180;2023-03-22T13:09:44;31.00;26.00
423;DHT22;198;48.752;9.180;2023-03-22T13:12:31;30.70;25.10
423;DHT22;198;48.752;9.180;2023-03-22T13:14:59;31.10;25.60
423;DHT22;198;48.752;9.180;2023-03-22T13:22:25;32.30;25.20
423;DHT22;198;48.752;9.180;2023-03-22T13:30:46;35.50;23.20
423;DHT22;198;48.752;9.180;2023-03-22T13:35:52;34.60;23.20
423;DHT22;198;48.752;9.180;2023-03-22T13:38:22;32.80;23.90
423;DHT22;198;48.752;9.180;2023-03-22T13:41:26;31.90;24.50
423;DHT22;198;48.752;9.180;2023-03-22T13:43:54;30.60;25.00
423;DHT22;198;48.752;9.180;2023-03-22T13:53:54;27.60;27.50
423;DHT22;198;48.752;9.180;2023-03-22T14:04:39;25.30;29.90
423;DHT22;198;48.752;9.180;2023-03-22T14:10:19;23.90;30.70
423;DHT22;198;48.752;9.180;2023-03-22T14:12:49;23.80;32.10
423;DHT22;198;48.752;9.180;2023-03-22T14:15:28;23.30;32.00
423;DHT22;198;48.752;9.180;2023-03-22T14:20:34;22.20;32.20
423;DHT22;198;48.752;9.180;2023-03-22T14:23:04;21.80;32.80
423;DHT22;198;48.752;9.180;2023-03-22T14:25:32;21.80;33.00
423;DHT22;198;48.752;9.180;2023-03-22T14:27:59;21.80;33.00
423;DHT22;198;48.752;9.180;2023-03-22T14:30:33;21.50;33.60
423;DHT22;198;48.752;9.180;2023-03-22T14:33:20;21.20;34.40
423;DHT22;198;48.752;9.180;2023-03-22T14:35:50;21.10;34.60
423;DHT22;198;48.752;9.180;2023-03-22T14:38:20;20.80;34.40
423;DHT22;198;48.752;9.180;2023-03-22T14:40:46;20.70;35.60
423;DHT22;198;48.752;9.180;2023-03-22T14:45:41;20.70;35.70
423;DHT22;198;48.752;9.180;2023-03-22T14:48:16;20.50;35.40
423;DHT22;198;48.752;9.180;2023-03-22T14:50:50;20.60;36.30
423;DHT22;198;48.752;9.180;2023-03-22T14:53:18;20.70;35.70
423;DHT22;198;48.752;9.180;2023-03-22T14:55:47;20.50;35.50
423;DHT22;198;48.752;9.180;2023-03-22T14:58:16;20.60;36.10
423;DHT22;198;48.752;9.180;2023-03-22T15:00:42;20.70;35.90
423;DHT22;198;48.752;9.180;2023-03-22T15:03:16;21.00;36.50
423;DHT22;198;48.752;9.180;2023-03-22T15:05:47;21.30;36.10
423;DHT22;198;48.752;9.180;2023-03-22T15:10:46;21.00;35.50
423;DHT22;198;48.752;9.180;2023-03-22T15:13:12;21.10;36.00
423;DHT22;198;48.752;9.180;2023-03-22T15:15:40;20.80;36.20
423;DHT22;198;48.752;9.180;2023-03-22T15:18:07;20.90;36.30
423;DHT22;198;48.752;9.180;2023-03-22T15:20:39;21.10;36.50
423;DHT22;198;48.752;9.180;2023-03-22T15:25:56;21.50;36.80
423;DHT22;198;48.752;9.180;2023-03-22T15:28:27;22.00;36.90
423;DHT22;198;48.752;9.180;2023-03-22T15:30:54;22.60;35.80
423;DHT22;198;48.752;9.180;2023-03-22T15:33:24;23.20;35.40
423;DHT22;198;48.752;9.180;2023-03-22T15:35:53;24.30;35.10
423;DHT22;198;48.752;9.180;2023-03-22T15:38:27;24.40;33.10
423;DHT22;198;48.752;9.180;2023-03-22T15:40:54;24.70;33.40
423;DHT22;198;48.752;9.180;2023-03-22T15:43:22;24.40;33.00
423;DHT22;198;48.752;9.180;2023-03-22T15:48:47;24.80;33.10
423;DHT22;198;48.752;9.180;2023-03-22T15:51:19;24.30;32.40
423;DHT22;198;48.752;9.180;2023-03-22T15:53:47;24.40;33.10
423;DHT22;198;48.752;9.180;2023-03-22T15:56:33;24.30;32.50
423;DHT22;198;48.752;9.180;2023-03-22T15:59:02;24.40;32.50
423;DHT22;198;48.752;9.180;2023-03-22T16:01:34;24.50;32.30
423;DHT22;198;48.752;9.180;2023-03-22T16:04:15;23.90;32.40
423;DHT22;198;48.752;9.180;2023-03-22T16:06:41;23.00;33.30
423;DHT22;198;48.752;9.180;2023-03-22T16:09:07;22.20;34.30
423;DHT22;198;48.752;9.180;2023-03-22T16:11:34;21.70;35.40
423;DHT22;198;48.752;9.180;2023-03-22T16:14:00;21.10;36.20
423;DHT22;198;48.752;9.180;2023-03-22T16:16:25;20.50;36.70
423;DHT22;198;48.752;9.180;2023-03-22T16:18:51;20.10;37.10
423;DHT22;198;48.752;9.180;2023-03-22T16:21:19;19.80;37.40
423;DHT22;198;48.752;9.180;2023-03-22T16:23:49;19.40;37.50
423;DHT22;198;48.752;9.180;2023-03-22T16:26:16;19.10;38.10
423;DHT22;198;48.752;9.180;2023-03-22T16:28:44;18.90;39.30
423;DHT22;198;48.752;9.180;2023-03-22T16:31:15;18.90;39.20
423;DHT22;198;48.752;9.180;2023-03-22T16:33:42;18.80;39.50
423;DHT22;198;48.752;9.180;2023-03-22T16:36:11;18.80;39.70
423;DHT22;198;48.752;9.180;2023-03-22T16:38:36;18.70;39.80
423;DHT22;198;48.752;9.180;2023-03-22T16:41:04;18.60;40.20
423;DHT22;198;48.752;9.180;2023-03-22T16:43:30;18.50;40.50
423;DHT22;198;48.752;9.180;2023-03-22T16:45:55;18.30;40.80
423;DHT22;198;48.752;9.180;2023-03-22T16:48:21;18.20;41.30
423;DHT22;198;48.752;9.180;2023-03-22T16:50:48;18.00;41.70
423;DHT22;198;48.752;9.180;2023-03-22T16:53:16;18.00;42.10
423;DHT22;198;48.752;9.180;2023-03-22T16:55:42;17.90;42.90
423;DHT22;198;48.752;9.180;2023-03-22T16:58:08;17.80;42.60
423;DHT22;198;48.752;9.180;2023-03-22T17:00:34;17.80;42.90
423;DHT22;198;48.752;9.180;2023-03-22T17:03:02;17.60;43.10
423;DHT22;198;48.752;9.180;2023-03-22T17:05:31;17.60;43.50
423;DHT22;198;48.752;9.180;2023-03-22T17:07:58;17.50;43.60
423;DHT22;198;48.752;9.180;2023-03-22T17:10:25;17.50;43.80
423;DHT22;198;48.752;9.180;2023-03-22T17:12:51;17.40;43.90
423;DHT22;198;48.752;9.180;2023-03-22T17:15:31;17.40;44.20
423;DHT22;198;48.752;9.180;2023-03-22T17:18:00;17.40;44.60
423;DHT22;198;48.752;9.180;2023-03-22T17:20:27;17.30;44.60
423;DHT22;198;48.752;9.180;2023-03-22T17:22:54;17.30;44.80
423;DHT22;198;48.752;9.180;2023-03-22T17:25:24;17.30;45.00
423;DHT22;198;48.752;9.180;2023-03-22T17:27:50;17.20;45.20
423;DHT22;198;48.752;9.180;2023-03-22T17:30:16;17.10;45.40
423;DHT22;198;48.752;9.180;2023-03-22T17:32:41;17.10;45.60
423;DHT22;198;48.752;9.180;2023-03-22T17:35:08;17.00;45.80
423;DHT22;198;48.752;9.180;2023-03-22T17:37:36;16.90;46.20
423;DHT22;198;48.752;9.180;2023-03-22T17:40:01;16.80;46.20
423;DHT22;198;48.752;9.180;2023-03-22T17:42:27;16.80;46.60
423;DHT22;198;48.752;9.180;2023-03-22T17:44:53;16.70;46.70
423;DHT22;198;48.752;9.180;2023-03-22T17:47:18;16.70;46.90
423;DHT22;198;48.752;9.180;2023-03-22T17:49:44;16.60;47.30
423;DHT22;198;48.752;9.180;2023-03-22T17:52:14;16.60;47.30
423;DHT22;198;48.752;9.180;2023-03-22T17:54:40;16.60;47.50
423;DHT22;198;48.752;9.180;2023-03-22T17:57:06;16.50;47.50
423;DHT22;198;48.752;9.180;2023-03-22T17:59:31;16.50;47.60
423;DHT22;198;48.752;9.180;2023-03-22T18:02:02;16.40;47.80
423;DHT22;198;48.752;9.180;2023-03-22T18:04:28;16.30;48.10
423;DHT22;198;48.752;9.180;2023-03-22T18:06:54;16.20;48.30
423;DHT22;198;48.752;9.180;2023-03-22T18:09:19;16.10;48.50
423;DHT22;198;48.752;9.180;2023-03-22T18:11:46;16.10;48.70
423;DHT22;198;48.752;9.180;2023-03-22T18:14:12;15.90;48.90
423;DHT22;198;48.752;9.180;2023-03-22T18:16:37;15.90;49.10
423;DHT22;198;48.752;9.180;2023-03-22T18:19:03;15.90;49.30
423;DHT22;198;48.752;9.180;2023-03-22T18:21:30;15.80;49.40
423;DHT22;198;48.752;9.180;2023-03-22T18:23:57;15.80;49.50
423;DHT22;198;48.752;9.180;2023-03-22T18:26:22;15.70;49.50
423;DHT22;198;48.752;9.180;2023-03-22T18:28:48;15.70;49.70
423;DHT22;198;48.752;9.180;2023-03-22T18:31:14;15.70;49.80
423;DHT22;198;48.752;9.180;2023-03-22T18:33:40;15.70;50.00
423;DHT22;198;48.752;9.180;2023-03-22T18:36:07;15.60;50.00
423;DHT22;198;48.752;9.180;2023-03-22T18:38:32;15.60;50.40
423;DHT22;198;48.752;9.180;2023-03-22T18:41:05;15.60;50.30
423;DHT22;198;48.752;9.180;2023-03-22T18:43:33;15.50;50.10
423;DHT22;198;48.752;9.180;2023-03-22T18:45:59;15.50;50.20